Nashville, Indiana
Current Conditions -  °F | °C
As of 12:15 PM on Friday 24 Oct 2014 (Local Time) from K1II Reporting Station
Scattered Clouds Scattered Clouds  
Wind Chill: 61°   Ceiling: Unl
Heat Index: 61°   Visibility: 7mi
Dew Point: 43°   Wind: 3mph
Humidity: 52%   Direction: 220°SW
Pressure: 30.11"   Gusts: NA
Location:  39.21°N, 86.25°W
Report Text: K1II 241615Z AUTO 22003KT 7SM SCT065 SCT080 SCT110 16/06 A3011 RMK AO2
Loading
Personal Weather Stations






























Interactive Weather Map
Tropical Storm Tracking
New forecast layout! Learn more

10-Day Weather Forecast

Advertisements
Track Severe Weather on mobile